ΕΜΥ, Εθνική Μετεωρολογική Υπηρεσία - Δελτία Καιρού, Προγνώσεις

ΑΕΡΟΝΑΥΤΙΛΙΑ

GREEK AIRPORTS CODES

LGZA 251750Z 00000KT 9999 FEW018 10/09 Q1027=

EUROPEAN AIRPORTS CODES

LFPO 252100Z 28002KT 3000 R02/1200U R24/1400U BR NSC 03/02Q1018 NOSIG=